Time;durP1;ratioP1;P1;durP2;ratioP2;P2;SDS_P1;SDS_P2;PMS_P1;PMS_P2;Temp;Humidity;BMP_temperature;BMP_pressure;BME280_temperature;BME280_humidity;BME280_pressure;Samples;Min_cycle;Max_cycle;Signal;HPM_P1;HPM_P2
2021/09/02 00:01:32;;;;;;;;;;;;;;;16.62;55.93;99684.09;5134147;27;805;-59
2021/09/02 00:03:59;;;;;;;;;;;;;;;16.53;56.20;99692.31;5134157;27;808;-59
2021/09/02 00:06:25;;;;;;;;;;;;;;;16.43;56.51;99683.06;5134082;27;888;-59
2021/09/02 00:08:52;;;;;;;;;;;;;;;16.34;56.67;99694.09;5132873;27;852;-59
2021/09/02 00:11:18;;;;;;;;;;;;;;;16.27;56.75;99692.31;5133980;27;901;-59
2021/09/02 00:13:45;;;;;;;;;;;;;;;16.27;57.02;99697.09;5133928;27;790;-59
2021/09/02 00:16:11;;;;;;;;;;;;;;;16.18;57.07;99692.19;5133800;27;1971;-59
2021/09/02 00:18:39;;;;;;;;;;;;;;;16.13;57.54;99690.72;5133841;27;896;-59
2021/09/02 00:21:05;;;;;;;;;;;;;;;16.11;57.46;99689.63;5133853;27;891;-59
2021/09/02 00:23:31;;;;;;;;;;;;;;;16.14;57.46;99697.09;5133717;27;836;-59
2021/09/02 00:25:58;;;;;;;;;;;;;;;16.10;57.50;99696.41;5133831;27;821;-59
2021/09/02 00:28:24;;;;;;;;;;;;;;;16.04;57.73;99693.38;5133619;27;845;-59
2021/09/02 00:30:51;;;;;;;;;;;;;;;16.00;58.12;99691.91;5133565;27;897;-59
2021/09/02 00:33:18;;;;;;;;;;;;;;;15.95;58.17;99686.91;5133567;27;908;-59
2021/09/02 00:35:46;;;;;;;;;;;;;;;15.89;58.63;99693.00;5133247;27;1984;-59
2021/09/02 00:38:12;;;;;;;;;;;;;;;16.09;58.33;99698.41;5133569;27;778;-59
2021/09/02 00:40:40;;;;;;;;;;;;;;;16.27;57.87;99700.66;5133392;27;810;-59
2021/09/02 00:43:06;;;;;;;;;;;;;;;16.25;58.02;99697.53;5133418;27;873;-59
2021/09/02 00:45:33;;;;;;;;;;;;;;;16.35;57.96;99700.47;5133294;27;821;-59
2021/09/02 00:47:59;;;;;;;;;;;;;;;16.44;57.61;99706.94;5132517;27;864;-59
2021/09/02 00:50:25;;;;;;;;;;;;;;;16.45;57.51;99702.94;5133301;27;893;-59
2021/09/02 00:52:52;;;;;;;;;;;;;;;16.42;57.19;99705.81;5133261;27;826;-59
2021/09/02 00:55:19;;;;;;;;;;;;;;;16.18;57.73;99699.78;5133069;27;1897;-59
2021/09/02 00:57:45;;;;;;;;;;;;;;;16.07;58.46;99700.09;5133445;27;818;-59
2021/09/02 01:00:14;;;;;;;;;;;;;;;16.22;57.81;99700.44;5133019;27;877;-59
2021/09/02 01:02:42;;;;;;;;;;;;;;;16.12;57.83;99691.16;5133105;27;873;-59
2021/09/02 01:05:09;;;;;;;;;;;;;;;15.99;58.37;99696.72;5132883;27;836;-59
2021/09/02 01:07:36;;;;;;;;;;;;;;;15.95;58.38;99701.59;5132818;27;818;-59
2021/09/02 01:10:03;;;;;;;;;;;;;;;15.92;58.87;99694.91;5132978;27;837;-59
2021/09/02 01:12:30;;;;;;;;;;;;;;;16.12;58.66;99699.53;5133251;27;892;-59
2021/09/02 01:15:07;;;;;;;;;;;;;;;16.31;58.08;99689.41;5132681;27;1881;-60
2021/09/02 01:17:33;;;;;;;;;;;;;;;16.67;57.15;99686.31;5132884;27;833;-59
2021/09/02 01:20:01;;;;;;;;;;;;;;;16.84;56.32;99691.78;5132823;27;876;-60
2021/09/02 01:22:29;;;;;;;;;;;;;;;16.89;56.33;99694.00;5131794;27;814;-59
2021/09/02 01:25:06;;;;;;;;;;;;;;;16.89;56.41;99702.38;5132643;27;818;-59
2021/09/02 01:27:33;;;;;;;;;;;;;;;16.88;56.36;99703.63;5132733;27;876;-59
2021/09/02 01:30:00;;;;;;;;;;;;;;;16.92;56.20;99709.88;5132652;27;856;-60
2021/09/02 01:32:31;;;;;;;;;;;;;;;16.86;56.46;99706.09;5132648;27;865;-59
2021/09/02 01:34:58;;;;;;;;;;;;;;;16.82;56.69;99705.41;5132165;27;1975;-59
2021/09/02 01:37:26;;;;;;;;;;;;;;;16.82;56.73;99711.00;5132581;27;845;-59
2021/09/02 01:39:53;;;;;;;;;;;;;;;16.81;56.75;99712.22;5132769;27;786;-60
2021/09/02 01:42:19;;;;;;;;;;;;;;;16.71;57.03;99708.53;5132530;27;817;-60
2021/09/02 01:44:45;;;;;;;;;;;;;;;16.63;57.38;99702.38;5132460;27;850;-59
2021/09/02 01:47:21;;;;;;;;;;;;;;;16.58;57.53;99699.34;5132500;27;827;-59
2021/09/02 01:49:48;;;;;;;;;;;;;;;16.51;57.78;99697.56;5132550;27;809;-59
2021/09/02 01:52:14;;;;;;;;;;;;;;;16.49;57.93;99700.00;5132447;27;873;-59
2021/09/02 01:54:41;;;;;;;;;;;;;;;16.50;57.89;99680.06;5132300;27;913;-59
2021/09/02 01:57:08;;;;;;;;;;;;;;;16.58;57.74;99674.25;5132326;27;1963;-59
2021/09/02 01:59:34;;;;;;;;;;;;;;;16.62;57.60;99669.31;5132362;27;868;-60
2021/09/02 02:02:01;;;;;;;;;;;;;;;16.67;57.33;99677.16;5132500;27;833;-59
2021/09/02 02:04:27;;;;;;;;;;;;;;;16.73;57.20;99672.56;5132355;27;837;-60
2021/09/02 02:06:54;;;;;;;;;;;;;;;16.71;57.02;99680.63;5131020;28;2169;-59
2021/09/02 02:09:20;;;;;;;;;;;;;;;16.71;57.03;99677.81;5132517;27;821;-59
2021/09/02 02:11:47;;;;;;;;;;;;;;;16.73;57.14;99687.31;5132484;27;924;-60
2021/09/02 02:14:14;;;;;;;;;;;;;;;16.68;57.49;99685.06;5132604;27;869;-59
2021/09/02 02:16:40;;;;;;;;;;;;;;;16.68;57.25;99689.88;5132371;27;1940;-59
2021/09/02 02:19:06;;;;;;;;;;;;;;;16.65;57.43;99693.56;5135146;27;948;-59
2021/09/02 02:21:33;;;;;;;;;;;;;;;16.63;57.43;99710.75;5136208;27;849;-59
2021/09/02 02:23:58;;;;;;;;;;;;;;;16.63;57.47;99702.38;5135997;27;829;-59
2021/09/02 02:26:25;;;;;;;;;;;;;;;16.62;57.43;99714.78;5136004;27;931;-59
2021/09/02 02:28:51;;;;;;;;;;;;;;;16.51;57.98;99717.09;5136029;27;817;-59
2021/09/02 02:31:18;;;;;;;;;;;;;;;16.48;58.02;99726.38;5134645;27;830;-59
2021/09/02 02:33:44;;;;;;;;;;;;;;;16.52;57.94;99727.81;5135927;27;834;-59
2021/09/02 02:36:11;;;;;;;;;;;;;;;16.44;58.09;99736.84;5135490;27;1976;-59
2021/09/02 02:38:37;;;;;;;;;;;;;;;16.32;58.29;99741.16;5135911;27;904;-59
2021/09/02 02:41:04;;;;;;;;;;;;;;;16.30;58.54;99738.84;5135834;27;817;-59
2021/09/02 02:43:30;;;;;;;;;;;;;;;16.24;58.61;99737.81;5134380;27;957;-59
2021/09/02 02:45:58;;;;;;;;;;;;;;;16.15;58.90;99740.47;5135715;27;887;-59
2021/09/02 02:48:24;;;;;;;;;;;;;;;16.01;59.64;99749.25;5135732;27;861;-60
2021/09/02 02:50:51;;;;;;;;;;;;;;;15.93;59.59;99755.00;5135561;27;859;-59
2021/09/02 02:53:18;;;;;;;;;;;;;;;15.87;59.95;99755.97;5134219;27;826;-59
2021/09/02 02:55:45;;;;;;;;;;;;;;;15.87;60.07;99762.34;5135352;27;1939;-59
2021/09/02 02:58:11;;;;;;;;;;;;;;;15.87;60.02;99759.56;5135430;27;870;-59
2021/09/02 03:00:38;;;;;;;;;;;;;;;15.94;59.94;99766.94;5135457;27;849;-59
2021/09/02 03:03:04;;;;;;;;;;;;;;;16.00;59.73;99767.97;5135373;27;854;-59
2021/09/02 03:08:32;;;;;;;;;;;;;;;16.07;59.53;99764.97;5135309;27;647;-60
2021/09/02 03:10:58;;;;;;;;;;;;;;;16.10;59.38;99763.31;5135226;27;961;-60
2021/09/02 03:13:25;;;;;;;;;;;;;;;16.11;59.20;99765.66;5135228;27;872;-59
2021/09/02 03:15:52;;;;;;;;;;;;;;;16.14;59.20;99764.00;5135201;27;1886;-59
2021/09/02 03:18:18;;;;;;;;;;;;;;;16.13;59.17;99762.44;5135079;27;842;-59
2021/09/02 03:20:44;;;;;;;;;;;;;;;16.18;59.19;99758.34;5135345;27;881;-59
2021/09/02 03:23:10;;;;;;;;;;;;;;;16.13;59.22;99756.88;5135357;27;928;-59
2021/09/02 03:25:37;;;;;;;;;;;;;;;16.15;59.14;99759.19;5135305;27;843;-60
2021/09/02 03:28:03;;;;;;;;;;;;;;;16.17;58.97;99751.19;5135177;27;853;-60
2021/09/02 03:30:30;;;;;;;;;;;;;;;16.15;59.25;99751.59;5134799;27;928;-60
2021/09/02 03:32:56;;;;;;;;;;;;;;;16.16;59.24;99755.19;5134783;27;857;-60
2021/09/02 03:35:23;;;;;;;;;;;;;;;16.10;59.21;99763.31;5134475;27;1977;-60
2021/09/02 03:37:50;;;;;;;;;;;;;;;15.97;59.62;99763.28;5134719;27;809;-59
2021/09/02 03:40:16;;;;;;;;;;;;;;;15.95;59.89;99768.50;5134646;27;857;-59
2021/09/02 03:42:43;;;;;;;;;;;;;;;15.93;59.77;99759.81;5134688;27;833;-59
2021/09/02 03:45:10;;;;;;;;;;;;;;;15.94;59.81;99766.94;5134620;27;782;-60
2021/09/02 03:47:37;;;;;;;;;;;;;;;15.92;59.93;99753.44;5134607;27;806;-59
2021/09/02 03:50:04;;;;;;;;;;;;;;;15.88;60.02;99757.56;5134591;27;794;-59
2021/09/02 03:52:32;;;;;;;;;;;;;;;15.93;59.83;99757.00;5134385;27;912;-59
2021/09/02 03:55:02;;;;;;;;;;;;;;;16.05;59.43;99749.94;5134232;27;964;-59
2021/09/02 03:57:28;;;;;;;;;;;;;;;16.16;59.10;99744.81;5134600;27;802;-59
2021/09/02 03:59:55;;;;;;;;;;;;;;;16.22;58.96;99759.00;5135077;27;754;-59
2021/09/02 04:02:21;;;;;;;;;;;;;;;16.24;59.08;99756.56;5134804;27;802;-59
2021/09/02 04:04:48;;;;;;;;;;;;;;;16.22;59.12;99761.81;5134199;27;876;-59
2021/09/02 04:07:15;;;;;;;;;;;;;;;16.19;59.10;99751.50;5134057;27;794;-60
2021/09/02 04:09:42;;;;;;;;;;;;;;;16.22;59.05;99751.41;5134045;27;894;-58
2021/09/02 04:12:08;;;;;;;;;;;;;;;16.29;58.60;99750.44;5133960;27;897;-59
2021/09/02 04:14:35;;;;;;;;;;;;;;;16.33;58.69;99742.75;5133909;27;833;-59
2021/09/02 04:17:01;;;;;;;;;;;;;;;16.46;57.99;99751.91;5134028;27;1960;-60
2021/09/02 04:19:28;;;;;;;;;;;;;;;16.53;57.91;99746.09;5133877;27;877;-59
2021/09/02 04:21:54;;;;;;;;;;;;;;;16.58;57.79;99755.16;5133685;27;778;-59
2021/09/02 04:24:21;;;;;;;;;;;;;;;16.66;57.23;99756.50;5133769;27;822;-59
2021/09/02 04:26:48;;;;;;;;;;;;;;;16.68;57.34;99757.59;5133740;27;965;-59
2021/09/02 04:29:16;;;;;;;;;;;;;;;16.74;57.30;99755.84;5133658;27;818;-59
2021/09/02 04:31:43;;;;;;;;;;;;;;;16.83;56.86;99751.63;5133557;27;898;-59
2021/09/02 04:34:09;;;;;;;;;;;;;;;16.97;56.29;99756.00;5133651;27;789;-59
2021/09/02 04:36:36;;;;;;;;;;;;;;;16.97;56.73;99762.34;5133265;27;1972;-59
2021/09/02 04:42:07;;;;;;;;;;;;;;;17.03;56.14;99765.38;5132859;27;652;-60
2021/09/02 04:44:33;;;;;;;;;;;;;;;17.06;56.36;99770.81;5133397;27;809;-59
2021/09/02 04:47:00;;;;;;;;;;;;;;;17.11;56.08;99773.06;5133256;27;932;-59
2021/09/02 04:49:27;;;;;;;;;;;;;;;17.20;56.09;99771.59;5133357;27;848;-60
2021/09/02 04:51:53;;;;;;;;;;;;;;;17.27;55.69;99760.19;5133366;27;834;-59
2021/09/02 04:54:20;;;;;;;;;;;;;;;17.35;55.40;99770.69;5133286;27;805;-60
2021/09/02 05:00:19;;;;;;;;;;;;;;;17.49;55.14;99775.00;5133151;27;695;-59
2021/09/02 05:02:45;;;;;;;;;;;;;;;17.58;55.12;99770.72;5133029;27;936;-59
2021/09/02 05:16:29;;;;;;;;;;;;;;;17.94;54.04;99776.69;5524194;22;2002;-60
2021/09/02 05:18:55;;;;;;;;;;;;;;;18.02;53.83;99768.03;5071827;28;814;-60
2021/09/02 05:21:21;;;;;;;;;;;;;;;18.10;53.65;99774.94;5071688;28;826;-61
2021/09/02 05:23:48;;;;;;;;;;;;;;;18.16;53.37;99776.69;5071657;28;802;-60
2021/09/02 05:26:14;;;;;;;;;;;;;;;18.24;53.47;99782.00;5071640;28;857;-60
2021/09/02 05:28:41;;;;;;;;;;;;;;;18.36;53.05;99781.94;5071662;28;813;-60
2021/09/02 05:31:07;;;;;;;;;;;;;;;18.40;52.60;99790.22;5071545;28;818;-60
2021/09/02 05:33:34;;;;;;;;;;;;;;;18.51;52.70;99789.81;5071633;28;798;-61
2021/09/02 05:36:01;;;;;;;;;;;;;;;18.67;52.42;99780.41;5071473;28;1917;-60
2021/09/02 05:38:28;;;;;;;;;;;;;;;18.79;52.05;99793.56;5071522;28;903;-60
2021/09/02 05:40:54;;;;;;;;;;;;;;;18.92;51.73;99788.63;5071508;28;810;-61
2021/09/02 05:43:22;;;;;;;;;;;;;;;19.20;51.03;99788.72;5071626;28;822;-61
2021/09/02 05:45:48;;;;;;;;;;;;;;;19.42;50.74;99797.06;5071393;28;873;-60
2021/09/02 06:00:26;;;;;;;;;;;;;;;21.86;44.18;99788.66;5075697;28;616;-61
2021/09/02 06:02:53;;;;;;;;;;;;;;;21.97;44.09;99790.91;5074064;28;1401;-60
2021/09/02 06:05:19;;;;;;;;;;;;;;;22.18;43.38;99794.66;5074011;28;1472;-60
2021/09/02 06:07:46;;;;;;;;;;;;;;;22.30;43.31;99796.44;5075349;28;865;-60
2021/09/02 06:13:16;;;;;;;;;;;;;;;22.88;41.83;99796.16;5075200;28;616;-60
2021/09/02 06:15:43;;;;;;;;;;;;;;;23.48;40.69;99794.75;5074933;28;1894;-61
2021/09/02 06:18:10;;;;;;;;;;;;;;;23.93;39.73;99797.38;5075066;28;802;-60
2021/09/02 06:20:37;;;;;;;;;;;;;;;24.13;39.00;99802.22;5075038;28;814;-60
2021/09/02 06:23:04;;;;;;;;;;;;;;;24.07;38.99;99801.38;5074947;28;889;-61
2021/09/02 06:25:33;;;;;;;;;;;;;;;23.62;39.61;99799.56;5074906;28;802;-61
2021/09/02 06:28:00;;;;;;;;;;;;;;;23.40;40.22;99799.22;5074862;28;818;-61
2021/09/02 06:30:27;;;;;;;;;;;;;;;23.67;39.82;99802.94;5074744;28;851;-60
2021/09/02 06:32:52;;;;;;;;;;;;;;;24.19;38.83;99805.88;5075115;28;794;-61
2021/09/02 06:35:19;;;;;;;;;;;;;;;24.23;38.84;99809.25;5074586;28;1937;-60
2021/09/02 06:49:56;;;;;;;;;;;;;;;25.27;36.60;99837.44;5074741;28;668;-60
2021/09/02 06:52:22;;;;;;;;;;;;;;;25.61;36.18;99845.38;5074558;28;803;-60
2021/09/02 06:54:49;;;;;;;;;;;;;;;25.68;35.53;99842.06;5074599;28;810;-60
2021/09/02 06:57:15;;;;;;;;;;;;;;;25.53;35.94;99845.06;5074271;28;1951;-60
2021/09/02 06:59:41;;;;;;;;;;;;;;;25.82;35.66;99846.75;5074287;28;921;-61
2021/09/02 07:02:08;;;;;;;;;;;;;;;26.03;34.99;99844.56;5074248;28;890;-61
2021/09/02 07:04:34;;;;;;;;;;;;;;;26.08;35.63;99840.19;5072214;28;1195;-61
2021/09/02 07:07:00;;;;;;;;;;;;;;;26.22;34.29;99836.38;5074390;28;861;-61
2021/09/02 07:09:27;;;;;;;;;;;;;;;25.85;35.14;99844.97;5074203;28;891;-61
2021/09/02 07:11:53;;;;;;;;;;;;;;;25.69;35.76;99843.63;5074063;28;810;-61
2021/09/02 07:14:19;;;;;;;;;;;;;;;25.84;35.60;99849.88;5073979;28;991;-61
2021/09/02 07:16:45;;;;;;;;;;;;;;;26.19;34.92;99830.97;5073888;28;1950;-61
2021/09/02 07:19:12;;;;;;;;;;;;;;;26.36;35.14;99840.28;5074077;28;857;-60
2021/09/02 07:21:39;;;;;;;;;;;;;;;26.81;33.69;99834.69;5074621;28;806;-61
2021/09/02 07:24:06;;;;;;;;;;;;;;;27.29;32.64;99833.66;5074176;28;821;-60
2021/09/02 07:26:32;;;;;;;;;;;;;;;27.45;32.30;99834.13;5073833;28;845;-61
2021/09/02 07:28:59;;;;;;;;;;;;;;;27.09;32.43;99840.34;5073724;28;806;-61
2021/09/02 07:31:25;;;;;;;;;;;;;;;26.56;33.98;99842.13;5073744;28;833;-60
2021/09/02 07:33:51;;;;;;;;;;;;;;;26.88;33.82;99847.56;5073605;28;845;-60
2021/09/02 07:36:18;;;;;;;;;;;;;;;26.78;33.04;99843.44;5073592;28;1977;-60
2021/09/02 07:38:45;;;;;;;;;;;;;;;26.58;33.74;99848.06;5073525;28;849;-60
2021/09/02 07:41:14;;;;;;;;;;;;;;;26.88;33.21;99839.06;5073585;28;857;-60
2021/09/02 07:43:42;;;;;;;;;;;;;;;26.83;32.66;99842.69;5073378;28;802;-60
2021/09/02 07:46:10;;;;;;;;;;;;;;;26.53;33.80;99842.38;5073523;28;1216;-60
2021/09/02 07:48:36;;;;;;;;;;;;;;;26.62;33.59;99848.59;5074105;28;829;-60
2021/09/02 07:51:03;;;;;;;;;;;;;;;26.77;32.75;99831.34;5073732;28;794;-60
2021/09/02 07:53:30;;;;;;;;;;;;;;;26.57;32.61;99834.44;5073851;28;767;-60
2021/09/02 07:55:58;;;;;;;;;;;;;;;26.49;33.25;99839.78;5073235;28;1913;-61
2021/09/02 07:58:24;;;;;;;;;;;;;;;26.69;33.95;99841.63;5072359;28;1203;-60
2021/09/02 08:00:50;;;;;;;;;;;;;;;27.34;32.33;99823.59;5073414;28;799;-60
2021/09/02 08:03:17;;;;;;;;;;;;;;;27.72;31.22;99828.88;5073131;28;864;-60
2021/09/02 08:05:44;;;;;;;;;;;;;;;27.84;31.40;99831.16;5072976;28;808;-60
2021/09/02 08:08:16;;;;;;;;;;;;;;;27.97;30.18;99832.69;5072987;28;888;-61
2021/09/02 08:10:44;;;;;;;;;;;;;;;28.05;31.03;99833.69;5073088;28;826;-61
2021/09/02 08:13:11;;;;;;;;;;;;;;;27.97;30.77;99835.53;5072805;28;892;-60
2021/09/02 08:15:38;;;;;;;;;;;;;;;27.94;31.39;99843.03;5071898;28;1893;-61
2021/09/02 08:18:04;;;;;;;;;;;;;;;28.19;31.41;99831.84;5072623;28;1303;-61
2021/09/02 08:20:31;;;;;;;;;;;;;;;28.21;30.94;99838.53;5072739;28;881;-60
2021/09/02 08:22:57;;;;;;;;;;;;;;;28.39;30.63;99825.75;5072686;28;881;-60
2021/09/02 08:25:24;;;;;;;;;;;;;;;28.78;30.66;99838.16;5072542;28;838;-60
2021/09/02 08:27:51;;;;;;;;;;;;;;;29.09;30.06;99829.13;5072622;28;885;-60
2021/09/02 08:30:19;;;;;;;;;;;;;;;28.89;30.50;99835.22;5072510;28;824;-60
2021/09/02 08:32:49;;;;;;;;;;;;;;;28.55;30.49;99835.50;5072569;28;853;-60
2021/09/02 08:35:19;;;;;;;;;;;;;;;28.53;30.26;99835.25;5072291;28;1964;-60
2021/09/02 08:37:45;;;;;;;;;;;;;;;28.15;30.90;99828.50;5072354;28;868;-61
2021/09/02 08:40:11;;;;;;;;;;;;;;;28.15;31.48;99819.97;5072534;28;786;-61
2021/09/02 08:42:40;;;;;;;;;;;;;;;28.47;30.77;99831.66;5072247;28;806;-61
2021/09/02 08:45:07;;;;;;;;;;;;;;;28.64;30.70;99823.81;5072256;28;880;-60
2021/09/02 08:47:35;;;;;;;;;;;;;;;28.45;30.54;99820.03;5072198;28;861;-60
2021/09/02 08:50:03;;;;;;;;;;;;;;;28.46;30.55;99813.03;5072265;28;810;-60
2021/09/02 08:52:30;;;;;;;;;;;;;;;28.23;30.73;99813.19;5072258;28;862;-60
2021/09/02 08:54:57;;;;;;;;;;;;;;;28.75;30.79;99813.66;5072121;28;869;-61
2021/09/02 08:57:25;;;;;;;;;;;;;;;29.21;30.09;99811.94;5071959;28;1947;-60
2021/09/02 08:59:51;;;;;;;;;;;;;;;29.47;28.71;99811.44;5071999;28;821;-60
2021/09/02 09:02:22;;;;;;;;;;;;;;;29.27;28.87;99804.13;5070683;28;1313;-60
2021/09/02 09:05:15;;;;;;;;;;;;;;;28.80;29.35;99801.44;5071951;28;933;-60
2021/09/02 09:07:45;;;;;;;;;;;;;;;27.81;30.50;99800.97;5069194;28;1205;-60
2021/09/02 09:10:11;;;;;;;;;;;;;;;27.86;30.55;99805.88;5072111;28;810;-60
2021/09/02 09:12:42;;;;;;;;;;;;;;;28.04;30.42;99809.44;5071870;28;839;-60
2021/09/02 09:15:14;;;;;;;;;;;;;;;28.00;30.65;99808.94;5071898;28;938;-60
2021/09/02 09:17:41;;;;;;;;;;;;;;;28.00;30.94;99806.09;5071500;28;1319;-61
2021/09/02 09:20:07;;;;;;;;;;;;;;;27.30;31.22;99806.06;5071734;28;806;-60
2021/09/02 09:22:34;;;;;;;;;;;;;;;27.61;31.65;99802.09;5071749;28;841;-60
2021/09/02 09:25:03;;;;;;;;;;;;;;;27.90;30.29;99800.69;5071643;28;786;-60
2021/09/02 09:27:33;;;;;;;;;;;;;;;27.70;30.81;99806.72;5071629;28;786;-61
2021/09/02 09:30:18;;;;;;;;;;;;;;;26.35;33.24;99816.06;5071660;28;793;-60
2021/09/02 09:32:48;;;;;;;;;;;;;;;26.03;34.69;99821.13;5071527;28;806;-60
2021/09/02 09:35:18;;;;;;;;;;;;;;;26.50;33.29;99810.19;5071615;28;818;-60
2021/09/02 09:37:48;;;;;;;;;;;;;;;26.25;32.72;99811.94;5071421;28;1072;-60
2021/09/02 09:40:15;;;;;;;;;;;;;;;25.33;34.34;99820.53;5072377;28;833;-60
2021/09/02 09:43:00;;;;;;;;;;;;;;;24.59;36.05;99824.78;5071683;28;826;-60
2021/09/02 09:45:33;;;;;;;;;;;;;;;24.12;37.43;99826.09;5071468;28;861;-60
2021/09/02 09:47:59;;;;;;;;;;;;;;;23.84;37.44;99827.28;5071532;28;794;-60
2021/09/02 09:50:26;;;;;;;;;;;;;;;23.72;37.32;99834.03;5071590;28;845;-60
2021/09/02 09:52:52;;;;;;;;;;;;;;;23.68;37.75;99821.41;5070275;28;912;-60
2021/09/02 09:55:20;;;;;;;;;;;;;;;23.70;37.94;99822.47;5070231;28;1988;-60
2021/09/02 09:57:47;;;;;;;;;;;;;;;23.65;37.93;99826.75;5071531;28;903;-60
2021/09/02 10:00:17;;;;;;;;;;;;;;;23.73;38.03;99818.66;5071402;28;853;-60
2021/09/02 10:02:44;;;;;;;;;;;;;;;23.86;38.14;99814.75;5071284;28;1126;-60
2021/09/02 10:05:11;;;;;;;;;;;;;;;23.92;38.31;99807.09;5071248;28;881;-60
2021/09/02 10:07:40;;;;;;;;;;;;;;;24.04;38.16;99806.72;5071319;28;885;-61
2021/09/02 10:10:11;;;;;;;;;;;;;;;23.99;37.69;99807.47;5071436;28;880;-60
2021/09/02 10:12:38;;;;;;;;;;;;;;;23.92;38.15;99807.09;5071133;28;853;-60
2021/09/02 10:15:07;;;;;;;;;;;;;;;24.14;38.17;99815.84;5071255;28;1026;-60
2021/09/02 10:17:35;;;;;;;;;;;;;;;24.12;37.99;99812.72;5070829;28;1953;-60
2021/09/02 10:20:09;;;;;;;;;;;;;;;23.94;38.16;99807.38;5071146;28;869;-61
2021/09/02 10:22:36;;;;;;;;;;;;;;;24.00;38.18;99806.19;5071616;28;885;-61
2021/09/02 10:25:04;;;;;;;;;;;;;;;24.73;36.29;99794.88;5071364;28;797;-60
2021/09/02 10:27:35;;;;;;;;;;;;;;;24.71;36.11;99802.28;5071627;28;774;-60
2021/09/02 10:30:19;;;;;;;;;;;;;;;25.37;34.32;99806.13;5071014;28;869;-61
2021/09/02 10:32:45;;;;;;;;;;;;;;;25.98;33.79;99799.22;5071531;28;815;-60
2021/09/02 10:35:12;;;;;;;;;;;;;;;26.03;32.99;99799.25;5071123;28;857;-60
2021/09/02 10:37:43;;;;;;;;;;;;;;;25.37;34.27;99801.25;5071350;28;1910;-60
2021/09/02 10:40:18;;;;;;;;;;;;;;;24.52;35.87;99811.13;5073661;28;889;-61
2021/09/02 10:42:47;;;;;;;;;;;;;;;24.04;35.64;99800.31;5074932;28;838;-60
2021/09/02 10:45:27;;;;;;;;;;;;;;;24.48;36.09;99801.28;5074544;28;810;-61
2021/09/02 10:47:54;;;;;;;;;;;;;;;25.72;34.27;99800.13;5074530;28;875;-60
2021/09/02 11:02:31;;;;;;;;;;;;;;;26.73;31.71;99804.53;5074607;28;623;-60
2021/09/02 11:14:49;;;;;;;;;;;;;;;27.99;30.20;99798.84;5074417;28;1164;-60
2021/09/02 11:17:17;;;;;;;;;;;;;;;27.94;29.55;99799.69;5073676;28;1894;-61
2021/09/02 11:19:43;;;;;;;;;;;;;;;27.85;29.46;99803.56;5073972;28;830;-61
2021/09/02 11:22:11;;;;;;;;;;;;;;;27.62;29.17;99803.63;5073993;28;817;-61
2021/09/02 11:24:42;;;;;;;;;;;;;;;27.64;30.11;99792.53;5073885;28;873;-61
2021/09/02 11:27:08;;;;;;;;;;;;;;;28.08;30.08;99790.06;5073828;28;809;-60
2021/09/02 11:29:35;;;;;;;;;;;;;;;28.25;29.33;99785.03;5073777;28;810;-61
2021/09/02 11:32:04;;;;;;;;;;;;;;;28.44;28.68;99790.84;5073701;28;862;-61
2021/09/02 11:34:31;;;;;;;;;;;;;;;28.40;29.59;99806.63;5073938;28;794;-61
2021/09/02 11:36:58;;;;;;;;;;;;;;;28.52;28.92;99801.66;5073620;28;1959;-61
2021/09/02 11:39:31;;;;;;;;;;;;;;;28.15;29.15;99805.75;5073430;28;847;-61
2021/09/02 11:42:04;;;;;;;;;;;;;;;27.90;29.94;99803.53;5073571;28;813;-61
2021/09/02 11:47:35;;;;;;;;;;;;;;;28.20;29.45;99799.25;5073409;28;696;-62
2021/09/02 11:50:03;;;;;;;;;;;;;;;28.07;28.96;99799.84;5073130;28;858;-60
2021/09/02 11:52:45;;;;;;;;;;;;;;;28.15;29.32;99802.94;5073587;28;786;-61
2021/09/02 11:55:30;;;;;;;;;;;;;;;28.25;29.43;99807.75;5073306;28;853;-60
2021/09/02 11:57:59;;;;;;;;;;;;;;;28.88;28.95;99799.56;5073286;28;819;-62
2021/09/02 12:00:26;;;;;;;;;;;;;;;28.79;28.36;99802.75;5073175;28;794;-61
2021/09/02 12:02:55;;;;;;;;;;;;;;;28.85;28.53;99801.41;5073170;28;810;-61
2021/09/02 12:05:24;;;;;;;;;;;;;;;28.35;29.16;99801.75;5072983;28;885;-61
2021/09/02 12:07:52;;;;;;;;;;;;;;;27.75;29.97;99810.81;5073268;28;913;-61
2021/09/02 12:10:19;;;;;;;;;;;;;;;28.03;29.47;99802.97;5072839;28;856;-61
2021/09/02 12:12:46;;;;;;;;;;;;;;;28.40;28.29;99798.09;5072969;28;830;-61
2021/09/02 12:15:25;;;;;;;;;;;;;;;28.27;28.06;99793.00;5073032;28;930;-61
2021/09/02 12:18:03;;;;;;;;;;;;;;;27.85;29.31;99797.88;5072487;28;1390;-61
2021/09/02 12:20:30;;;;;;;;;;;;;;;27.98;28.89;99795.25;5071452;28;2024;-60
2021/09/02 12:23:25;;;;;;;;;;;;;;;28.27;28.24;99790.97;5072698;28;846;-61
2021/09/02 12:26:01;;;;;;;;;;;;;;;28.38;27.49;99789.31;5072717;28;870;-61
2021/09/02 12:28:33;;;;;;;;;;;;;;;28.46;27.38;99782.56;5072539;28;869;-60
2021/09/02 12:31:20;;;;;;;;;;;;;;;28.80;26.81;99781.53;5072600;28;794;-61
2021/09/02 12:33:56;;;;;;;;;;;;;;;28.88;26.72;99803.19;5072384;28;1158;-60
2021/09/02 12:36:22;;;;;;;;;;;;;;;29.10;26.23;99790.88;5072377;28;1895;-60
2021/09/02 12:38:48;;;;;;;;;;;;;;;29.08;27.05;99793.44;5071045;28;838;-60
2021/09/02 12:41:20;;;;;;;;;;;;;;;29.14;26.80;99786.94;5072559;28;857;-61
2021/09/02 12:44:09;;;;;;;;;;;;;;;28.83;27.42;99783.34;5072396;28;834;-61
2021/09/02 12:46:54;;;;;;;;;;;;;;;29.02;25.89;99783.38;5072299;28;884;-61
2021/09/02 12:49:23;;;;;;;;;;;;;;;29.08;26.43;99793.44;5072282;28;885;-61
2021/09/02 12:52:00;;;;;;;;;;;;;;;28.89;27.09;99789.72;5072171;28;841;-60
2021/09/02 12:54:27;;;;;;;;;;;;;;;29.16;27.05;99787.94;5072055;28;798;-60
2021/09/02 12:56:54;;;;;;;;;;;;;;;29.38;25.60;99786.94;5072015;28;1893;-61
2021/09/02 12:59:19;;;;;;;;;;;;;;;28.86;26.91;99788.72;5072158;28;869;-61
2021/09/02 13:01:46;;;;;;;;;;;;;;;29.12;26.68;99781.78;5071431;28;821;-61
2021/09/02 13:04:12;;;;;;;;;;;;;;;28.66;27.14;99795.63;5071943;28;869;-61
2021/09/02 13:06:39;;;;;;;;;;;;;;;28.19;27.62;99787.13;5071976;28;904;-61
2021/09/02 13:09:06;;;;;;;;;;;;;;;28.11;28.07;99789.00;5071753;28;856;-60
2021/09/02 13:11:34;;;;;;;;;;;;;;;27.67;28.88;99787.88;5071889;28;798;-60
2021/09/02 13:14:01;;;;;;;;;;;;;;;27.32;29.78;99800.63;5071912;28;876;-60
2021/09/02 13:16:27;;;;;;;;;;;;;;;26.91;30.22;99789.06;5071643;28;1889;-60
2021/09/02 13:18:54;;;;;;;;;;;;;;;26.31;31.47;99795.72;5071804;28;861;-60
2021/09/02 13:21:20;;;;;;;;;;;;;;;26.35;31.36;99793.41;5071725;28;861;-60
2021/09/02 13:23:48;;;;;;;;;;;;;;;27.36;30.02;99791.88;5071708;28;798;-60
2021/09/02 13:26:14;;;;;;;;;;;;;;;27.38;30.12;99795.72;5071883;28;814;-60
2021/09/02 13:28:41;;;;;;;;;;;;;;;27.24;29.94;99793.94;5071661;28;893;-60
2021/09/02 13:31:07;;;;;;;;;;;;;;;27.63;29.67;99804.41;5071629;28;856;-60
2021/09/02 13:33:33;;;;;;;;;;;;;;;27.72;29.82;99798.44;5071566;28;866;-60
2021/09/02 13:36:00;;;;;;;;;;;;;;;27.87;30.24;99801.75;5071628;28;1976;-60
2021/09/02 13:38:28;;;;;;;;;;;;;;;27.65;29.94;99807.50;5071456;28;854;-61
2021/09/02 13:40:55;;;;;;;;;;;;;;;27.28;30.46;99815.06;5071506;28;837;-60
2021/09/02 13:43:21;;;;;;;;;;;;;;;26.87;30.22;99818.44;5071535;28;881;-61
2021/09/02 13:45:48;;;;;;;;;;;;;;;26.72;31.57;99820.00;5071522;28;810;-60
2021/09/02 13:48:14;;;;;;;;;;;;;;;26.73;30.84;99830.81;5071450;28;869;-61
2021/09/02 13:50:41;;;;;;;;;;;;;;;26.44;30.45;99820.72;5071385;28;867;-59
2021/09/02 13:53:09;;;;;;;;;;;;;;;26.37;30.93;99824.03;5071406;28;814;-61
2021/09/02 13:55:35;;;;;;;;;;;;;;;26.18;31.32;99826.56;5071633;28;1973;-60
2021/09/02 13:58:02;;;;;;;;;;;;;;;25.99;31.97;99824.22;5071343;28;806;-60
2021/09/02 14:00:28;;;;;;;;;;;;;;;25.95;32.18;99817.25;5071377;28;810;-60
2021/09/02 14:02:55;;;;;;;;;;;;;;;26.07;32.28;99821.66;5071315;28;814;-60
2021/09/02 14:05:21;;;;;;;;;;;;;;;25.92;32.40;99829.56;5071225;28;850;-59
2021/09/02 14:07:48;;;;;;;;;;;;;;;25.55;33.29;99825.53;5071223;28;830;-60
2021/09/02 14:10:14;;;;;;;;;;;;;;;25.35;33.64;99823.63;5071536;28;854;-60
2021/09/02 14:12:40;;;;;;;;;;;;;;;25.12;34.01;99836.81;5071775;28;858;-59
2021/09/02 14:15:10;;;;;;;;;;;;;;;25.14;34.22;99836.31;5075302;28;914;-61
2021/09/02 14:17:36;;;;;;;;;;;;;;;25.13;34.38;99831.91;5074805;28;1889;-60
2021/09/02 14:20:03;;;;;;;;;;;;;;;24.95;34.82;99836.66;5075024;28;857;-60
2021/09/02 14:22:30;;;;;;;;;;;;;;;24.87;34.75;99835.56;5075103;28;810;-59